sensor_id;sensor_type;location;lat;lon;timestamp;pressure;altitude;pressure_sealevel;temperature;humidity
62031;BME280;62035;52.094;5.112;2023-04-07T00:00:12;101607.06;;;9.35;100.00
62031;BME280;62035;52.094;5.112;2023-04-07T00:02:40;101608.66;;;9.38;100.00
62031;BME280;62035;52.094;5.112;2023-04-07T00:05:09;101597.41;;;9.34;100.00
62031;BME280;62035;52.094;5.112;2023-04-07T00:07:37;101606.22;;;9.34;100.00
62031;BME280;62035;52.094;5.112;2023-04-07T00:10:05;101606.00;;;9.38;100.00
62031;BME280;62035;52.094;5.112;2023-04-07T00:12:34;101604.41;;;9.35;100.00
62031;BME280;62035;52.094;5.112;2023-04-07T00:15:02;101606.94;;;9.25;100.00
62031;BME280;62035;52.094;5.112;2023-04-07T00:17:30;101594.75;;;9.23;100.00
62031;BME280;62035;52.094;5.112;2023-04-07T00:19:57;101607.69;;;9.39;100.00
62031;BME280;62035;52.094;5.112;2023-04-07T00:22:26;101614.81;;;9.27;100.00
62031;BME280;62035;52.094;5.112;2023-04-07T00:24:54;101613.22;;;9.35;100.00
62031;BME280;62035;52.094;5.112;2023-04-07T00:27:21;101613.09;;;9.37;100.00
62031;BME280;62035;52.094;5.112;2023-04-07T00:29:49;101611.66;;;9.44;100.00
62031;BME280;62035;52.094;5.112;2023-04-07T00:32:17;101612.88;;;9.29;100.00
62031;BME280;62035;52.094;5.112;2023-04-07T00:34:44;101602.00;;;9.21;100.00
62031;BME280;62035;52.094;5.112;2023-04-07T00:37:12;101610.94;;;9.20;100.00
62031;BME280;62035;52.094;5.112;2023-04-07T00:39:41;101599.50;;;9.19;100.00
62031;BME280;62035;52.094;5.112;2023-04-07T00:42:08;101609.72;;;9.35;100.00
62031;BME280;62035;52.094;5.112;2023-04-07T00:44:36;101600.91;;;9.23;100.00
62031;BME280;62035;52.094;5.112;2023-04-07T00:47:04;101606.00;;;9.38;100.00
62031;BME280;62035;52.094;5.112;2023-04-07T00:49:31;101605.03;;;9.39;100.00
62031;BME280;62035;52.094;5.112;2023-04-07T00:52:00;101613.47;;;9.55;100.00
62031;BME280;62035;52.094;5.112;2023-04-07T00:54:29;101609.22;;;9.52;100.00
62031;BME280;62035;52.094;5.112;2023-04-07T00:56:58;101612.97;;;9.50;100.00
62031;BME280;62035;52.094;5.112;2023-04-07T00:59:26;101613.69;;;9.52;100.00
62031;BME280;62035;52.094;5.112;2023-04-07T01:02:02;101613.97;;;9.38;100.00
62031;BME280;62035;52.094;5.112;2023-04-07T01:04:38;101610.94;;;9.31;100.00
62031;BME280;62035;52.094;5.112;2023-04-07T01:07:15;101617.22;;;9.41;100.00
62031;BME280;62035;52.094;5.112;2023-04-07T01:09:53;101616.13;;;9.44;100.00
62031;BME280;62035;52.094;5.112;2023-04-07T01:12:33;101612.75;;;9.42;100.00
62031;BME280;62035;52.094;5.112;2023-04-07T01:15:09;101617.22;;;9.30;100.00
62031;BME280;62035;52.094;5.112;2023-04-07T01:17:42;101606.22;;;9.23;100.00
62031;BME280;62035;52.094;5.112;2023-04-07T01:20:16;101616.63;;;9.38;100.00
62031;BME280;62035;52.094;5.112;2023-04-07T01:22:52;101608.75;;;9.36;100.00
62031;BME280;62035;52.094;5.112;2023-04-07T01:25:45;101611.78;;;9.43;100.00
62031;BME280;62035;52.094;5.112;2023-04-07T01:28:53;101620.22;;;9.48;100.00
62031;BME280;62035;52.094;5.112;2023-04-07T01:31:29;101605.25;;;9.35;100.00
62031;BME280;62035;52.094;5.112;2023-04-07T01:33:58;101604.06;;;9.40;100.00
62031;BME280;62035;52.094;5.112;2023-04-07T01:36:30;101619.75;;;9.43;100.00
62031;BME280;62035;52.094;5.112;2023-04-07T01:39:00;101614.44;;;9.31;100.00
62031;BME280;62035;52.094;5.112;2023-04-07T01:41:29;101617.22;;;9.30;100.00
62031;BME280;62035;52.094;5.112;2023-04-07T01:43:59;101621.19;;;9.24;100.00
62031;BME280;62035;52.094;5.112;2023-04-07T01:46:30;101623.38;;;9.30;100.00
62031;BME280;62035;52.094;5.112;2023-04-07T01:48:58;101617.34;;;9.28;100.00
62031;BME280;62035;52.094;5.112;2023-04-07T01:51:28;101619.28;;;9.26;100.00
62031;BME280;62035;52.094;5.112;2023-04-07T01:53:58;101620.22;;;9.36;100.00
62031;BME280;62035;52.094;5.112;2023-04-07T01:56:28;101627.13;;;9.39;100.00
62031;BME280;62035;52.094;5.112;2023-04-07T01:58:56;101620.22;;;9.36;100.00
62031;BME280;62035;52.094;5.112;2023-04-07T02:01:23;101625.31;;;9.40;100.00
62031;BME280;62035;52.094;5.112;2023-04-07T02:03:55;101617.69;;;9.35;100.00
62031;BME280;62035;52.094;5.112;2023-04-07T02:06:31;101626.50;;;9.35;100.00
62031;BME280;62035;52.094;5.112;2023-04-07T02:09:06;101622.66;;;9.28;100.00
62031;BME280;62035;52.094;5.112;2023-04-07T02:11:38;101618.06;;;9.30;100.00
62031;BME280;62035;52.094;5.112;2023-04-07T02:14:10;101629.06;;;9.37;100.00
62031;BME280;62035;52.094;5.112;2023-04-07T02:16:40;101624.94;;;9.33;100.00
62031;BME280;62035;52.094;5.112;2023-04-07T02:19:10;101626.41;;;9.37;100.00
62031;BME280;62035;52.094;5.112;2023-04-07T02:21:39;101616.38;;;9.41;100.00
62031;BME280;62035;52.094;5.112;2023-04-07T02:24:07;101619.75;;;9.31;100.00
62031;BME280;62035;52.094;5.112;2023-04-07T02:26:38;101619.28;;;9.26;100.00
62031;BME280;62035;52.094;5.112;2023-04-07T02:29:05;101612.03;;;9.28;100.00
62031;BME280;62035;52.094;5.112;2023-04-07T02:31:33;101610.81;;;9.32;100.00
62031;BME280;62035;52.094;5.112;2023-04-07T02:34:01;101616.84;;;9.34;100.00
62031;BME280;62035;52.094;5.112;2023-04-07T02:36:30;101608.53;;;9.39;100.00
62031;BME280;62035;52.094;5.112;2023-04-07T02:38:57;101616.63;;;9.38;100.00
62031;BME280;62035;52.094;5.112;2023-04-07T02:41:25;101616.13;;;9.44;100.00
62031;BME280;62035;52.094;5.112;2023-04-07T02:43:53;101606.72;;;9.40;100.00
62031;BME280;62035;52.094;5.112;2023-04-07T02:46:20;101607.91;;;9.35;100.00
62031;BME280;62035;52.094;5.112;2023-04-07T02:48:48;101611.78;;;9.31;100.00
62031;BME280;62035;52.094;5.112;2023-04-07T02:51:16;101615.56;;;9.18;100.00
62031;BME280;62035;52.094;5.112;2023-04-07T02:53:45;101617.22;;;9.30;100.00
62031;BME280;62035;52.094;5.112;2023-04-07T02:56:15;101621.69;;;9.29;100.00
62031;BME280;62035;52.094;5.112;2023-04-07T02:58:42;101623.97;;;9.23;100.00
62031;BME280;62035;52.094;5.112;2023-04-07T03:01:10;101618.31;;;9.27;100.00
62031;BME280;62035;52.094;5.112;2023-04-07T03:03:38;101624.59;;;9.26;100.00
62031;BME280;62035;52.094;5.112;2023-04-07T03:06:07;101619.88;;;9.30;100.00
62031;BME280;62035;52.094;5.112;2023-04-07T03:08:34;101616.63;;;9.26;100.00
62031;BME280;62035;52.094;5.112;2023-04-07T03:11:03;101627.25;;;9.15;100.00
62031;BME280;62035;52.094;5.112;2023-04-07T03:13:31;101624.22;;;9.20;100.00
62031;BME280;62035;52.094;5.112;2023-04-07T03:15:59;101620.47;;;9.22;100.00
62031;BME280;62035;52.094;5.112;2023-04-07T03:18:26;101624.69;;;9.36;100.00
62031;BME280;62035;52.094;5.112;2023-04-07T03:20:54;101620.13;;;9.38;100.00
62031;BME280;62035;52.094;5.112;2023-04-07T03:23:21;101610.34;;;9.27;100.00
62031;BME280;62035;52.094;5.112;2023-04-07T03:25:49;101622.41;;;9.31;100.00
62031;BME280;62035;52.094;5.112;2023-04-07T03:28:18;101624.47;;;9.28;100.00
62031;BME280;62035;52.094;5.112;2023-04-07T03:30:46;101617.81;;;9.22;100.00
62031;BME280;62035;52.094;5.112;2023-04-07T03:33:13;101614.81;;;9.27;100.00
62031;BME280;62035;52.094;5.112;2023-04-07T03:35:41;101619.75;;;9.31;100.00
62031;BME280;62035;52.094;5.112;2023-04-07T03:38:09;101626.63;;;9.34;100.00
62031;BME280;62035;52.094;5.112;2023-04-07T03:40:36;101623.41;;;9.19;100.00
62031;BME280;62035;52.094;5.112;2023-04-07T03:43:04;101616.72;;;9.25;100.00
62031;BME280;62035;52.094;5.112;2023-04-07T03:45:38;101623.84;;;9.24;100.00
62031;BME280;62035;52.094;5.112;2023-04-07T03:48:06;101618.44;;;9.26;100.00
62031;BME280;62035;52.094;5.112;2023-04-07T03:50:36;101633.63;;;9.24;100.00
62031;BME280;62035;52.094;5.112;2023-04-07T03:53:04;101628.19;;;9.25;100.00
62031;BME280;62035;52.094;5.112;2023-04-07T03:55:33;101623.25;;;9.32;100.00
62031;BME280;62035;52.094;5.112;2023-04-07T03:58:01;101628.56;;;9.32;100.00
62031;BME280;62035;52.094;5.112;2023-04-07T04:00:28;101632.06;;;9.44;100.00
62031;BME280;62035;52.094;5.112;2023-04-07T04:02:59;101628.31;;;9.46;100.00
62031;BME280;62035;52.094;5.112;2023-04-07T04:05:27;101636.41;;;9.56;100.00
62031;BME280;62035;52.094;5.112;2023-04-07T04:07:56;101635.69;;;9.54;100.00
62031;BME280;62035;52.094;5.112;2023-04-07T04:10:23;101646.19;;;9.55;100.00
62031;BME280;62035;52.094;5.112;2023-04-07T04:12:51;101639.06;;;9.56;100.00
62031;BME280;62035;52.094;5.112;2023-04-07T04:15:19;101640.28;;;9.52;100.00
62031;BME280;62035;52.094;5.112;2023-04-07T04:17:46;101630.84;;;9.59;100.00
62031;BME280;62035;52.094;5.112;2023-04-07T04:20:15;101639.44;;;9.51;100.00
62031;BME280;62035;52.094;5.112;2023-04-07T04:22:43;101637.97;;;9.36;100.00
62031;BME280;62035;52.094;5.112;2023-04-07T04:25:11;101646.31;;;9.43;100.00
62031;BME280;62035;52.094;5.112;2023-04-07T04:27:38;101641.59;;;9.46;100.00
62031;BME280;62035;52.094;5.112;2023-04-07T04:30:07;101642.09;;;9.51;100.00
62031;BME280;62035;52.094;5.112;2023-04-07T04:32:35;101644.03;;;9.49;100.00
62031;BME280;62035;52.094;5.112;2023-04-07T04:35:02;101649.69;;;9.45;100.00
62031;BME280;62035;52.094;5.112;2023-04-07T04:37:32;101649.56;;;9.57;100.00
62031;BME280;62035;52.094;5.112;2023-04-07T04:40:00;101651.81;;;9.62;100.00
62031;BME280;62035;52.094;5.112;2023-04-07T04:42:29;101642.09;;;9.51;100.00
62031;BME280;62035;52.094;5.112;2023-04-07T04:44:58;101653.19;;;9.56;100.00
62031;BME280;62035;52.094;5.112;2023-04-07T04:47:26;101648.00;;;9.44;100.00
62031;BME280;62035;52.094;5.112;2023-04-07T04:49:54;101649.44;;;9.48;100.00
62031;BME280;62035;52.094;5.112;2023-04-07T04:52:21;101658.50;;;9.45;100.00
62031;BME280;62035;52.094;5.112;2023-04-07T04:54:50;101657.19;;;9.40;100.00
62031;BME280;62035;52.094;5.112;2023-04-07T04:57:18;101659.72;;;9.41;100.00
62031;BME280;62035;52.094;5.112;2023-04-07T04:59:45;101668.91;;;9.37;100.00
62031;BME280;62035;52.094;5.112;2023-04-07T05:02:13;101664.44;;;9.38;100.00
62031;BME280;62035;52.094;5.112;2023-04-07T05:04:41;101665.25;;;9.27;100.00
62031;BME280;62035;52.094;5.112;2023-04-07T05:07:08;101674.09;;;9.39;100.00
62031;BME280;62035;52.094;5.112;2023-04-07T05:09:36;101669.63;;;9.28;100.00
62031;BME280;62035;52.094;5.112;2023-04-07T05:12:05;101669.72;;;9.26;100.00
62031;BME280;62035;52.094;5.112;2023-04-07T05:14:33;101672.53;;;9.36;100.00
62031;BME280;62035;52.094;5.112;2023-04-07T05:17:01;101674.69;;;9.42;100.00
62031;BME280;62035;52.094;5.112;2023-04-07T05:19:28;101674.69;;;9.42;100.00
62031;BME280;62035;52.094;5.112;2023-04-07T05:21:56;101671.66;;;9.35;100.00
62031;BME280;62035;52.094;5.112;2023-04-07T05:24:25;101680.50;;;9.36;100.00
62031;BME280;62035;52.094;5.112;2023-04-07T05:26:53;101676.03;;;9.48;100.00
62031;BME280;62035;52.094;5.112;2023-04-07T05:29:23;101681.81;;;9.42;100.00
62031;BME280;62035;52.094;5.112;2023-04-07T05:31:51;101675.78;;;9.51;100.00
62031;BME280;62035;52.094;5.112;2023-04-07T05:34:18;101683.16;;;9.58;100.00
62031;BME280;62035;52.094;5.112;2023-04-07T05:36:46;101677.91;;;9.68;100.00
62031;BME280;62035;52.094;5.112;2023-04-07T05:39:13;101678.41;;;9.62;100.00
62031;BME280;62035;52.094;5.112;2023-04-07T05:41:41;101680.69;;;9.66;100.00
62031;BME280;62035;52.094;5.112;2023-04-07T05:44:09;101674.56;;;9.55;100.00
62031;BME280;62035;52.094;5.112;2023-04-07T05:46:38;101657.19;;;9.40;100.00
62031;BME280;62035;52.094;5.112;2023-04-07T05:49:05;101680.94;;;9.63;100.00
62031;BME280;62035;52.094;5.112;2023-04-07T05:51:33;101684.00;;;9.59;100.00
62031;BME280;62035;52.094;5.112;2023-04-07T05:54:01;101686.91;;;9.56;100.00
62031;BME280;62035;52.094;5.112;2023-04-07T05:56:29;101686.66;;;9.48;100.00
62031;BME280;62035;52.094;5.112;2023-04-07T05:58:57;101693.41;;;9.41;100.00
62031;BME280;62035;52.094;5.112;2023-04-07T06:01:27;101681.56;;;9.22;100.00
62031;BME280;62035;52.094;5.112;2023-04-07T06:03:56;101700.41;;;9.30;100.00
62031;BME280;62035;52.094;5.112;2023-04-07T06:06:24;101700.16;;;9.33;100.00
62031;BME280;62035;52.094;5.112;2023-04-07T06:08:52;101705.72;;;9.30;100.00
62031;BME280;62035;52.094;5.112;2023-04-07T06:11:20;101695.81;;;9.21;100.00
62031;BME280;62035;52.094;5.112;2023-04-07T06:13:48;101686.16;;;9.09;100.00
62031;BME280;62035;52.094;5.112;2023-04-07T06:16:16;101711.28;;;9.16;100.00
62031;BME280;62035;52.094;5.112;2023-04-07T06:18:43;101714.16;;;9.13;100.00
62031;BME280;62035;52.094;5.112;2023-04-07T06:21:12;101695.09;;;9.19;100.00
62031;BME280;62035;52.094;5.112;2023-04-07T06:23:40;101708.97;;;9.23;100.00
62031;BME280;62035;52.094;5.112;2023-04-07T06:26:09;101716.94;;;9.34;100.00
62031;BME280;62035;52.094;5.112;2023-04-07T06:28:37;101717.31;;;9.41;100.00
62031;BME280;62035;52.094;5.112;2023-04-07T06:31:05;101712.38;;;9.36;100.00
62031;BME280;62035;52.094;5.112;2023-04-07T06:33:33;101720.22;;;9.49;100.00
62031;BME280;62035;52.094;5.112;2023-04-07T06:36:01;101725.78;;;9.57;100.00
62031;BME280;62035;52.094;5.112;2023-04-07T06:38:31;101726.25;;;9.51;100.00
62031;BME280;62035;52.094;5.112;2023-04-07T06:40:58;101721.44;;;9.45;100.00
62031;BME280;62035;52.094;5.112;2023-04-07T06:43:26;101727.47;;;9.47;100.00
62031;BME280;62035;52.094;5.112;2023-04-07T06:45:54;101731.09;;;9.46;100.00
62031;BME280;62035;52.094;5.112;2023-04-07T06:48:21;101739.31;;;9.54;100.00
62031;BME280;62035;52.094;5.112;2023-04-07T06:50:49;101734.72;;;9.45;100.00
62031;BME280;62035;52.094;5.112;2023-04-07T06:53:17;101728.44;;;9.57;100.00
62031;BME280;62035;52.094;5.112;2023-04-07T06:55:46;101747.41;;;9.52;100.00
62031;BME280;62035;52.094;5.112;2023-04-07T06:58:13;101749.56;;;9.69;100.00
62031;BME280;62035;52.094;5.112;2023-04-07T07:00:41;101742.91;;;9.75;100.00
62031;BME280;62035;52.094;5.112;2023-04-07T07:03:09;101752.81;;;9.62;100.00
62031;BME280;62035;52.094;5.112;2023-04-07T07:05:36;101749.44;;;9.49;100.00
62031;BME280;62035;52.094;5.112;2023-04-07T07:08:04;101755.75;;;9.59;100.00
62031;BME280;62035;52.094;5.112;2023-04-07T07:10:31;101758.53;;;9.57;100.00
62031;BME280;62035;52.094;5.112;2023-04-07T07:13:00;101761.75;;;9.61;100.00
62031;BME280;62035;52.094;5.112;2023-04-07T07:15:28;101743.78;;;9.53;100.00
62031;BME280;62035;52.094;5.112;2023-04-07T07:17:55;101762.25;;;9.66;100.00
62031;BME280;62035;52.094;5.112;2023-04-07T07:20:23;101770.69;;;9.71;100.00
62031;BME280;62035;52.094;5.112;2023-04-07T07:22:50;101763.44;;;9.62;100.00
62031;BME280;62035;52.094;5.112;2023-04-07T07:25:18;101764.06;;;9.65;100.00
62031;BME280;62035;52.094;5.112;2023-04-07T07:27:46;101763.22;;;9.43;100.00
62031;BME280;62035;52.094;5.112;2023-04-07T07:30:20;101770.97;;;9.57;100.00
62031;BME280;62035;52.094;5.112;2023-04-07T07:32:48;101778.78;;;9.69;100.00
62031;BME280;62035;52.094;5.112;2023-04-07T07:35:18;101780.84;;;9.88;100.00
62031;BME280;62035;52.094;5.112;2023-04-07T07:37:46;101782.66;;;9.88;100.00
62031;BME280;62035;52.094;5.112;2023-04-07T07:40:14;101775.53;;;9.88;100.00
62031;BME280;62035;52.094;5.112;2023-04-07T07:42:41;101787.16;;;9.98;100.00
62031;BME280;62035;52.094;5.112;2023-04-07T07:45:09;101783.00;;;10.17;100.00
62031;BME280;62035;52.094;5.112;2023-04-07T07:47:39;101778.41;;;10.19;100.00
62031;BME280;62035;52.094;5.112;2023-04-07T07:50:07;101789.53;;;10.35;100.00
62031;BME280;62035;52.094;5.112;2023-04-07T07:52:35;101778.91;;;10.24;100.00
62031;BME280;62035;52.094;5.112;2023-04-07T07:55:03;101786.03;;;10.23;100.00
62031;BME280;62035;52.094;5.112;2023-04-07T07:57:31;101788.31;;;10.06;100.00
62031;BME280;62035;52.094;5.112;2023-04-07T07:59:59;101784.13;;;9.92;100.00
62031;BME280;62035;52.094;5.112;2023-04-07T08:02:27;101782.28;;;10.15;100.00
62031;BME280;62035;52.094;5.112;2023-04-07T08:04:57;101783.63;;;10.20;100.00
62031;BME280;62035;52.094;5.112;2023-04-07T08:07:25;101788.56;;;10.25;100.00
62031;BME280;62035;52.094;5.112;2023-04-07T08:09:53;101781.41;;;10.14;100.00
62031;BME280;62035;52.094;5.112;2023-04-07T08:12:21;101788.81;;;10.11;100.00
62031;BME280;62035;52.094;5.112;2023-04-07T08:14:48;101797.03;;;10.08;100.00
62031;BME280;62035;52.094;5.112;2023-04-07T08:17:16;101791.69;;;10.08;100.00
62031;BME280;62035;52.094;5.112;2023-04-07T08:19:44;101797.03;;;10.08;100.00
62031;BME280;62035;52.094;5.112;2023-04-07T08:22:13;101800.16;;;10.13;100.00
62031;BME280;62035;52.094;5.112;2023-04-07T08:24:41;101798.25;;;10.26;100.00
62031;BME280;62035;52.094;5.112;2023-04-07T08:27:08;101804.78;;;10.33;100.00
62031;BME280;62035;52.094;5.112;2023-04-07T08:29:36;101803.03;;;10.43;100.00
62031;BME280;62035;52.094;5.112;2023-04-07T08:32:04;101796.75;;;10.44;100.00
62031;BME280;62035;52.094;5.112;2023-04-07T08:34:31;101802.88;;;10.56;100.00
62031;BME280;62035;52.094;5.112;2023-04-07T08:36:59;101809.66;;;10.60;100.00
62031;BME280;62035;52.094;5.112;2023-04-07T08:39:28;101796.97;;;10.52;100.00
62031;BME280;62035;52.094;5.112;2023-04-07T08:41:56;101810.72;;;10.68;100.00
62031;BME280;62035;52.094;5.112;2023-04-07T08:44:27;101808.06;;;10.68;100.00
62031;BME280;62035;52.094;5.112;2023-04-07T08:46:58;101803.50;;;10.80;100.00
62031;BME280;62035;52.094;5.112;2023-04-07T08:49:29;101812.41;;;10.69;100.00
62031;BME280;62035;52.094;5.112;2023-04-07T08:52:00;101814.13;;;10.91;100.00
62031;BME280;62035;52.094;5.112;2023-04-07T08:54:34;101809.50;;;10.93;100.00
62031;BME280;62035;52.094;5.112;2023-04-07T08:57:02;101812.38;;;11.22;100.00
62031;BME280;62035;52.094;5.112;2023-04-07T08:59:31;101811.88;;;11.28;100.00
62031;BME280;62035;52.094;5.112;2023-04-07T09:01:59;101811.34;;;11.55;100.00
62031;BME280;62035;52.094;5.112;2023-04-07T09:04:28;101812.94;;;11.67;100.00
62031;BME280;62035;52.094;5.112;2023-04-07T09:06:56;101818.84;;;11.71;100.00
62031;BME280;62035;52.094;5.112;2023-04-07T09:09:25;101816.38;;;11.49;100.00
62031;BME280;62035;52.094;5.112;2023-04-07T09:11:54;101810.25;;;11.58;100.00
62031;BME280;62035;52.094;5.112;2023-04-07T09:14:21;101818.06;;;11.50;100.00
62031;BME280;62035;52.094;5.112;2023-04-07T09:16:49;101820.31;;;11.54;100.00
62031;BME280;62035;52.094;5.112;2023-04-07T09:19:16;101820.78;;;11.18;100.00
62031;BME280;62035;52.094;5.112;2023-04-07T09:21:48;101823.50;;;11.07;100.00
62031;BME280;62035;52.094;5.112;2023-04-07T09:24:21;101832.50;;;10.94;100.00
62031;BME280;62035;52.094;5.112;2023-04-07T09:26:50;101813.97;;;10.72;100.00
62031;BME280;62035;52.094;5.112;2023-04-07T09:29:34;101830.78;;;10.73;100.00
62031;BME280;62035;52.094;5.112;2023-04-07T09:32:02;101830.13;;;10.80;100.00
62031;BME280;62035;52.094;5.112;2023-04-07T09:34:32;101838.94;;;10.92;100.00
62031;BME280;62035;52.094;5.112;2023-04-07T09:37:01;101839.66;;;10.94;100.00
62031;BME280;62035;52.094;5.112;2023-04-07T09:39:29;101838.56;;;10.96;100.00
62031;BME280;62035;52.094;5.112;2023-04-07T09:41:59;101836.41;;;10.90;100.00
62031;BME280;62035;52.094;5.112;2023-04-07T09:44:38;101831.63;;;11.05;100.00
62031;BME280;62035;52.094;5.112;2023-04-07T09:47:07;101838.72;;;11.16;100.00
62031;BME280;62035;52.094;5.112;2023-04-07T09:49:48;101832.81;;;11.12;100.00
62031;BME280;62035;52.094;5.112;2023-04-07T09:52:21;101832.47;;;11.26;100.00
62031;BME280;62035;52.094;5.112;2023-04-07T09:54:49;101841.50;;;11.35;100.00
62031;BME280;62035;52.094;5.112;2023-04-07T09:57:20;101839.31;;;11.40;100.00
62031;BME280;62035;52.094;5.112;2023-04-07T09:59:50;101839.44;;;11.39;100.00
62031;BME280;62035;52.094;5.112;2023-04-07T10:02:20;101844.06;;;11.36;100.00
62031;BME280;62035;52.094;5.112;2023-04-07T10:04:51;101844.69;;;11.29;100.00
62031;BME280;62035;52.094;5.112;2023-04-07T10:07:19;101849.25;;;11.38;100.00
62031;BME280;62035;52.094;5.112;2023-04-07T10:09:47;101841.13;;;11.40;100.00
62031;BME280;62035;52.094;5.112;2023-04-07T10:12:17;101846.06;;;11.23;100.00
62031;BME280;62035;52.094;5.112;2023-04-07T10:14:47;101850.22;;;11.37;100.00
62031;BME280;62035;52.094;5.112;2023-04-07T10:17:15;101843.66;;;11.41;100.00
62031;BME280;62035;52.094;5.112;2023-04-07T10:19:45;101845.66;;;11.07;100.00
62031;BME280;62035;52.094;5.112;2023-04-07T10:22:15;101857.25;;;11.17;100.00
62031;BME280;62035;52.094;5.112;2023-04-07T10:24:51;101845.78;;;11.06;100.00
62031;BME280;62035;52.094;5.112;2023-04-07T10:27:28;101853.78;;;11.26;100.00
62031;BME280;62035;52.094;5.112;2023-04-07T10:30:02;101862.41;;;10.98;100.00
62031;BME280;62035;52.094;5.112;2023-04-07T10:32:45;101871.06;;;10.79;100.00
62031;BME280;62035;52.094;5.112;2023-04-07T10:35:14;101873.53;;;11.03;100.00
62031;BME280;62035;52.094;5.112;2023-04-07T10:38:10;101865.53;;;10.71;100.00
62031;BME280;62035;52.094;5.112;2023-04-07T10:40:43;101868.78;;;10.75;100.00
62031;BME280;62035;52.094;5.112;2023-04-07T10:43:10;101873.16;;;11.08;100.00
62031;BME280;62035;52.094;5.112;2023-04-07T10:45:53;101882.63;;;11.21;100.00
62031;BME280;62035;52.094;5.112;2023-04-07T10:48:27;101883.56;;;11.31;100.00
62031;BME280;62035;52.094;5.112;2023-04-07T10:51:14;101875.81;;;11.28;100.00
62031;BME280;62035;52.094;5.112;2023-04-07T10:54:15;101883.19;;;11.57;100.00
62031;BME280;62035;52.094;5.112;2023-04-07T10:57:08;101879.81;;;11.55;100.00
62031;BME280;62035;52.094;5.112;2023-04-07T10:59:40;101871.22;;;11.51;100.00
62031;BME280;62035;52.094;5.112;2023-04-07T11:02:31;101872.84;;;11.43;100.00
62031;BME280;62035;52.094;5.112;2023-04-07T11:05:00;101868.78;;;11.80;100.00
62031;BME280;62035;52.094;5.112;2023-04-07T11:07:49;101874.00;;;12.22;100.00
62031;BME280;62035;52.094;5.112;2023-04-07T11:10:20;101864.63;;;12.27;100.00
62031;BME280;62035;52.094;5.112;2023-04-07T11:13:04;101876.06;;;12.09;100.00
62031;BME280;62035;52.094;5.112;2023-04-07T11:15:34;101876.94;;;12.19;100.00
62031;BME280;62035;52.094;5.112;2023-04-07T11:18:12;101882.09;;;11.80;100.00
62031;BME280;62035;52.094;5.112;2023-04-07T11:20:44;101889.78;;;11.53;100.00
62031;BME280;62035;52.094;5.112;2023-04-07T11:23:13;101887.09;;;11.53;100.00
62031;BME280;62035;52.094;5.112;2023-04-07T11:25:44;101883.81;;;11.28;100.00
62031;BME280;62035;52.094;5.112;2023-04-07T11:28:14;101894.22;;;11.11;100.00
62031;BME280;62035;52.094;5.112;2023-04-07T11:30:47;101893.75;;;11.06;100.00
62031;BME280;62035;52.094;5.112;2023-04-07T11:33:19;101897.13;;;11.08;100.00
62031;BME280;62035;52.094;5.112;2023-04-07T11:35:49;101892.41;;;11.00;100.00
62031;BME280;62035;52.094;5.112;2023-04-07T11:38:18;101896.69;;;11.23;100.00
62031;BME280;62035;52.094;5.112;2023-04-07T11:40:47;101894.19;;;11.43;100.00
62031;BME280;62035;52.094;5.112;2023-04-07T11:43:18;101896.59;;;11.46;100.00
62031;BME280;62035;52.094;5.112;2023-04-07T11:46:07;101898.72;;;11.73;100.00
62031;BME280;62035;52.094;5.112;2023-04-07T11:48:38;101899.63;;;12.03;100.00
62031;BME280;62035;52.094;5.112;2023-04-07T11:51:15;101895.75;;;12.17;100.00
62031;BME280;62035;52.094;5.112;2023-04-07T11:53:43;101895.56;;;12.40;100.00
62031;BME280;62035;52.094;5.112;2023-04-07T11:56:14;101897.59;;;12.17;100.00
62031;BME280;62035;52.094;5.112;2023-04-07T11:58:46;101894.28;;;12.03;100.00
62031;BME280;62035;52.094;5.112;2023-04-07T12:01:15;101897.41;;;12.09;100.00
62031;BME280;62035;52.094;5.112;2023-04-07T12:03:58;101863.63;;;11.88;100.00
62031;BME280;62035;52.094;5.112;2023-04-07T12:06:27;101899.53;;;12.15;100.00
62031;BME280;62035;52.094;5.112;2023-04-07T12:08:58;101906.69;;;12.14;100.00
62031;BME280;62035;52.094;5.112;2023-04-07T12:11:26;101912.03;;;12.14;100.00
62031;BME280;62035;52.094;5.112;2023-04-07T12:13:55;101901.94;;;12.18;100.00
62031;BME280;62035;52.094;5.112;2023-04-07T12:16:23;101904.25;;;12.32;100.00
62031;BME280;62035;52.094;5.112;2023-04-07T12:18:51;101913.13;;;12.42;100.00
62031;BME280;62035;52.094;5.112;2023-04-07T12:21:20;101918.59;;;12.31;100.00
62031;BME280;62035;52.094;5.112;2023-04-07T12:23:49;101920.34;;;12.21;100.00
62031;BME280;62035;52.094;5.112;2023-04-07T12:26:16;101931.34;;;11.97;100.00
62031;BME280;62035;52.094;5.112;2023-04-07T12:28:44;101931.72;;;11.92;100.00
62031;BME280;62035;52.094;5.112;2023-04-07T12:31:11;101925.56;;;11.92;100.00
62031;BME280;62035;52.094;5.112;2023-04-07T12:33:39;101931.53;;;11.84;100.00
62031;BME280;62035;52.094;5.112;2023-04-07T12:36:07;101940.94;;;11.67;100.00
62031;BME280;62035;52.094;5.112;2023-04-07T12:38:36;101946.50;;;11.44;100.00
62031;BME280;62035;52.094;5.112;2023-04-07T12:41:03;101948.66;;;11.50;100.00
62031;BME280;62035;52.094;5.112;2023-04-07T12:43:31;101948.25;;;11.33;100.00
62031;BME280;62035;52.094;5.112;2023-04-07T12:45:59;101954.41;;;11.34;100.00
62031;BME280;62035;52.094;5.112;2023-04-07T12:48:26;101960.13;;;11.29;100.00
62031;BME280;62035;52.094;5.112;2023-04-07T12:50:54;101950.50;;;11.17;100.00
62031;BME280;62035;52.094;5.112;2023-04-07T12:53:21;101954.63;;;11.42;100.00
62031;BME280;62035;52.094;5.112;2023-04-07T12:55:50;101955.53;;;11.20;100.00
62031;BME280;62035;52.094;5.112;2023-04-07T12:58:18;101964.72;;;11.27;100.00